Time,TemperatureF,DewpointF,PressureIn,WindDirection,WindDirectionDegrees,WindSpeedMPH,WindSpeedGustMPH,Humidity,HourlyPrecipIn,Conditions,Clouds,dailyrainin,SolarRadiationWatts/m^2,SoftwareType,DateUTC
2013-01-15 00:00:00,8.8,5.7,30.43,West,263,0.0,1.0,87,0.00,,---,0.00,0.00,VWS V14.01,2013-01-15 06:00:00,
2013-01-15 00:01:00,8.8,5.7,30.43,West,263,0.0,0.0,87,0.00,,---,0.00,0.00,VWS V14.01,2013-01-15 06:01:00,
2013-01-15 00:06:00,8.7,5.9,30.43,West,263,0.0,0.0,88,0.00,,---,0.00,0.00,VWS V14.01,2013-01-15 06:06:00,
2013-01-15 00:11:00,8.7,5.9,30.44,West,263,0.0,0.0,88,0.00,,---,0.00,0.00,VWS V14.01,2013-01-15 06:11:00,
2013-01-15 00:16:00,8.7,5.9,30.43,West,263,0.0,0.0,88,0.00,,---,0.00,0.00,VWS V14.01,2013-01-15 06:16:00,
2013-01-15 00:21:00,8.6,5.8,30.43,West,263,0.0,1.0,88,0.00,,---,0.00,0.00,VWS V14.01,2013-01-15 06:21:00,
2013-01-15 00:26:00,8.5,5.7,30.43,West,263,0.0,1.0,88,0.00,,---,0.00,0.00,VWS V14.01,2013-01-15 06:26:00,
2013-01-15 00:31:00,8.5,5.7,30.43,West,263,0.0,1.0,88,0.00,,---,0.00,0.00,VWS V14.01,2013-01-15 06:31:00,
2013-01-15 00:36:00,8.5,5.7,30.43,West,263,0.0,1.0,88,0.00,,---,0.00,0.00,VWS V14.01,2013-01-15 06:36:00,
2013-01-15 00:41:00,8.3,5.5,30.43,West,263,0.0,1.0,88,0.00,,---,0.00,0.00,VWS V14.01,2013-01-15 06:41:00,
2013-01-15 00:46:00,8.3,5.5,30.43,West,263,0.0,1.0,88,0.00,,---,0.00,0.00,VWS V14.01,2013-01-15 06:46:00,
2013-01-15 00:51:00,8.2,5.4,30.43,West,263,0.0,1.0,88,0.00,,---,0.00,0.00,VWS V14.01,2013-01-15 06:51:00,
2013-01-15 00:56:00,8.2,5.4,30.42,West,263,0.0,1.0,88,0.00,,---,0.00,0.00,VWS V14.01,2013-01-15 06:56:00,
2013-01-15 01:00:00,8.1,5.3,30.42,West,263,0.0,1.0,88,0.00,,---,0.00,0.00,VWS V14.01,2013-01-15 07:00:00,
2013-01-15 01:01:00,8.1,5.3,30.42,West,263,0.0,0.0,88,0.00,,---,0.00,0.00,VWS V14.01,2013-01-15 07:01:00,
2013-01-15 01:06:00,8.0,5.2,30.42,West,263,0.0,0.0,88,0.00,,---,0.00,0.00,VWS V14.01,2013-01-15 07:06:00,
2013-01-15 01:11:00,8.0,5.2,30.42,West,263,0.0,0.0,88,0.00,,---,0.00,0.00,VWS V14.01,2013-01-15 07:11:00,
2013-01-15 01:16:00,7.9,5.1,30.42,West,263,0.0,0.0,88,0.00,,---,0.00,0.00,VWS V14.01,2013-01-15 07:16:00,
2013-01-15 01:21:00,7.8,5.0,30.42,West,263,0.0,0.0,88,0.00,,---,0.00,0.00,VWS V14.01,2013-01-15 07:21:00,
2013-01-15 01:26:00,7.8,5.0,30.42,West,263,0.0,0.0,88,0.00,,---,0.00,0.00,VWS V14.01,2013-01-15 07:26:00,
2013-01-15 01:31:00,7.7,4.9,30.43,West,263,0.0,0.0,88,0.00,,---,0.00,0.00,VWS V14.01,2013-01-15 07:31:00,
2013-01-15 01:36:00,7.6,4.8,30.43,West,263,0.0,0.0,88,0.00,,---,0.00,0.00,VWS V14.01,2013-01-15 07:36:00,
2013-01-15 01:41:00,7.5,4.7,30.43,West,263,0.0,0.0,88,0.00,,---,0.00,0.00,VWS V14.01,2013-01-15 07:41:00,
2013-01-15 01:46:00,7.5,4.7,30.43,West,263,0.0,0.0,88,0.00,,---,0.00,0.00,VWS V14.01,2013-01-15 07:46:00,
2013-01-15 01:51:00,7.5,4.7,30.43,West,263,0.0,0.0,88,0.00,,---,0.00,0.00,VWS V14.01,2013-01-15 07:51:00,
2013-01-15 01:56:00,7.5,4.7,30.43,West,263,0.0,0.0,88,0.00,,---,0.00,0.00,VWS V14.01,2013-01-15 07:56:00,
2013-01-15 02:00:00,7.5,4.7,30.43,West,263,0.0,0.0,88,0.00,,---,0.00,0.00,VWS V14.01,2013-01-15 08:00:00,
2013-01-15 02:01:00,7.5,4.7,30.43,West,263,0.0,1.0,88,0.00,,---,0.00,0.00,VWS V14.01,2013-01-15 08:01:00,
2013-01-15 02:06:00,7.6,4.8,30.43,West,263,0.0,1.0,88,0.00,,---,0.00,0.00,VWS V14.01,2013-01-15 08:06:00,
2013-01-15 02:11:00,7.7,4.9,30.43,West,263,0.0,1.0,88,0.00,,---,0.00,0.00,VWS V14.01,2013-01-15 08:11:00,
2013-01-15 02:16:00,7.8,5.2,30.44,West,263,0.0,1.0,89,0.00,,---,0.00,0.00,VWS V14.01,2013-01-15 08:16:00,
2013-01-15 02:21:00,7.9,5.3,30.44,West,263,0.0,1.0,89,0.00,,---,0.00,0.00,VWS V14.01,2013-01-15 08:21:00,
2013-01-15 02:26:00,7.9,5.3,30.44,West,263,0.0,1.0,89,0.00,,---,0.00,0.00,VWS V14.01,2013-01-15 08:26:00,
2013-01-15 02:31:00,8.0,5.4,30.44,West,263,0.0,1.0,89,0.00,,---,0.00,0.00,VWS V14.01,2013-01-15 08:31:00,
2013-01-15 02:36:00,8.0,5.4,30.44,West,263,0.0,1.0,89,0.00,,---,0.00,0.00,VWS V14.01,2013-01-15 08:36:00,
2013-01-15 02:41:00,8.0,5.4,30.43,West,263,0.0,1.0,89,0.00,,---,0.00,0.00,VWS V14.01,2013-01-15 08:41:00,
2013-01-15 02:46:00,8.0,5.4,30.43,West,263,0.0,1.0,89,0.00,,---,0.00,0.00,VWS V14.01,2013-01-15 08:46:00,
2013-01-15 02:51:00,8.1,5.5,30.43,West,263,0.0,1.0,89,0.00,,---,0.00,0.00,VWS V14.01,2013-01-15 08:51:00,
2013-01-15 02:56:00,8.1,5.5,30.43,West,263,0.0,1.0,89,0.00,,---,0.00,0.00,VWS V14.01,2013-01-15 08:56:00,
2013-01-15 03:00:00,8.1,5.5,30.43,West,263,0.0,1.0,89,0.00,,---,0.00,0.00,VWS V14.01,2013-01-15 09:00:00,
2013-01-15 03:01:00,8.1,5.5,30.43,West,263,0.0,0.0,89,0.00,,---,0.00,0.00,VWS V14.01,2013-01-15 09:01:00,
2013-01-15 03:06:00,8.1,5.5,30.43,West,263,0.0,0.0,89,0.00,,---,0.00,0.00,VWS V14.01,2013-01-15 09:06:00,
2013-01-15 03:11:00,8.1,5.5,30.42,West,263,0.0,0.0,89,0.00,,---,0.00,0.00,VWS V14.01,2013-01-15 09:11:00,
2013-01-15 03:16:00,8.1,5.5,30.42,West,263,0.0,1.0,89,0.00,,---,0.00,0.00,VWS V14.01,2013-01-15 09:16:00,
2013-01-15 03:21:00,8.2,5.6,30.42,West,263,0.0,1.0,89,0.00,,---,0.00,0.00,VWS V14.01,2013-01-15 09:21:00,
2013-01-15 03:26:00,8.2,5.6,30.42,West,263,0.0,1.0,89,0.00,,---,0.00,0.00,VWS V14.01,2013-01-15 09:26:00,
2013-01-15 03:31:00,8.2,5.6,30.42,West,263,0.0,1.0,89,0.00,,---,0.00,0.00,VWS V14.01,2013-01-15 09:31:00,
2013-01-15 03:36:00,8.3,5.7,30.42,West,263,0.0,1.0,89,0.00,,---,0.00,0.00,VWS V14.01,2013-01-15 09:36:00,
2013-01-15 03:41:00,8.3,5.7,30.42,West,263,0.0,1.0,89,0.00,,---,0.00,0.00,VWS V14.01,2013-01-15 09:41:00,
2013-01-15 03:46:00,8.4,5.8,30.42,West,263,0.0,1.0,89,0.00,,---,0.00,0.00,VWS V14.01,2013-01-15 09:46:00,
2013-01-15 03:51:00,8.4,5.8,30.42,West,263,0.0,1.0,89,0.00,,---,0.00,0.00,VWS V14.01,2013-01-15 09:51:00,
2013-01-15 03:56:00,8.4,5.8,30.42,West,263,0.0,1.0,89,0.00,,---,0.00,0.00,VWS V14.01,2013-01-15 09:56:00,
2013-01-15 04:00:00,8.4,5.8,30.42,West,263,0.0,2.0,89,0.00,,---,0.00,0.00,VWS V14.01,2013-01-15 10:00:00,
2013-01-15 04:01:00,8.4,5.8,30.42,West,263,0.0,1.0,89,0.00,,---,0.00,0.00,VWS V14.01,2013-01-15 10:01:00,
2013-01-15 04:06:00,8.3,5.7,30.41,West,263,0.0,1.0,89,0.00,,---,0.00,0.00,VWS V14.01,2013-01-15 10:06:00,
2013-01-15 04:11:00,8.3,5.7,30.41,West,263,0.0,1.0,89,0.00,,---,0.00,0.00,VWS V14.01,2013-01-15 10:11:00,
2013-01-15 04:16:00,8.3,5.7,30.41,West,263,0.0,1.0,89,0.00,,---,0.00,0.00,VWS V14.01,2013-01-15 10:16:00,
2013-01-15 04:21:00,8.4,5.8,30.41,West,263,0.0,1.0,89,0.00,,---,0.00,0.00,VWS V14.01,2013-01-15 10:21:00,
2013-01-15 04:26:00,8.4,5.8,30.41,West,263,0.0,1.0,89,0.00,,---,0.00,0.00,VWS V14.01,2013-01-15 10:26:00,
2013-01-15 04:31:00,8.4,5.8,30.41,West,263,0.0,1.0,89,0.00,,---,0.00,0.00,VWS V14.01,2013-01-15 10:31:00,
2013-01-15 04:36:00,8.5,5.9,30.41,West,263,1.0,1.0,89,0.00,,---,0.00,0.00,VWS V14.01,2013-01-15 10:36:00,
2013-01-15 04:41:00,8.5,5.9,30.40,West,263,1.0,1.0,89,0.00,,---,0.00,0.00,VWS V14.01,2013-01-15 10:41:00,
2013-01-15 04:46:00,8.5,5.9,30.40,West,263,0.0,1.0,89,0.00,,---,0.00,0.00,VWS V14.01,2013-01-15 10:46:00,
2013-01-15 04:51:00,8.5,5.9,30.40,West,263,0.0,1.0,89,0.00,,---,0.00,0.00,VWS V14.01,2013-01-15 10:51:00,
2013-01-15 04:56:00,8.5,5.9,30.40,West,263,0.0,1.0,89,0.00,,---,0.00,0.00,VWS V14.01,2013-01-15 10:56:00,
2013-01-15 05:00:00,8.6,6.0,30.39,West,263,0.0,1.0,89,0.00,,---,0.00,0.00,VWS V14.01,2013-01-15 11:00:00,
2013-01-15 05:01:00,8.6,6.0,30.39,West,263,0.0,0.0,89,0.00,,---,0.00,0.00,VWS V14.01,2013-01-15 11:01:00,
2013-01-15 05:06:00,8.7,6.1,30.39,West,263,0.0,0.0,89,0.00,,---,0.00,0.00,VWS V14.01,2013-01-15 11:06:00,
2013-01-15 05:11:00,8.9,6.6,30.39,West,263,0.0,0.0,90,0.00,,---,0.00,0.00,VWS V14.01,2013-01-15 11:11:00,
2013-01-15 05:16:00,9.0,6.4,30.39,West,263,0.0,0.0,89,0.00,,---,0.00,0.00,VWS V14.01,2013-01-15 11:16:00,
2013-01-15 05:21:00,9.2,6.9,30.39,West,263,0.0,0.0,90,0.00,,---,0.00,0.00,VWS V14.01,2013-01-15 11:21:00,
2013-01-15 05:26:00,9.4,7.1,30.39,West,263,0.0,0.0,90,0.00,,---,0.00,0.00,VWS V14.01,2013-01-15 11:26:00,
2013-01-15 05:31:00,9.6,7.3,30.39,West,263,0.0,0.0,90,0.00,,---,0.00,0.00,VWS V14.01,2013-01-15 11:31:00,
2013-01-15 05:36:00,9.8,7.5,30.39,West,263,0.0,0.0,90,0.00,,---,0.00,0.00,VWS V14.01,2013-01-15 11:36:00,
2013-01-15 05:41:00,10.1,8.0,30.39,West,263,0.0,0.0,91,0.00,,---,0.00,0.00,VWS V14.01,2013-01-15 11:41:00,
2013-01-15 05:46:00,10.8,8.7,30.38,West,263,0.0,3.0,91,0.00,,---,0.00,0.00,VWS V14.01,2013-01-15 11:46:00,
2013-01-15 05:51:00,11.8,9.9,30.38,West,263,1.0,3.0,92,0.00,,---,0.00,0.00,VWS V14.01,2013-01-15 11:51:00,
2013-01-15 05:56:00,13.0,11.1,30.39,SSW,194,1.0,4.0,92,0.00,,---,0.00,0.00,VWS V14.01,2013-01-15 11:56:00,
2013-01-15 06:00:00,13.6,11.7,30.39,SSW,194,3.0,4.0,92,0.00,,---,0.00,0.00,VWS V14.01,2013-01-15 12:00:00,
2013-01-15 06:01:00,13.9,12.0,30.39,SSW,194,1.0,3.0,92,0.00,,---,0.00,0.00,VWS V14.01,2013-01-15 12:01:00,
2013-01-15 06:06:00,14.3,12.4,30.39,SSW,194,2.0,3.0,92,0.00,,---,0.00,0.00,VWS V14.01,2013-01-15 12:06:00,
2013-01-15 06:11:00,14.4,12.3,30.39,SSW,194,2.0,3.0,91,0.00,,---,0.00,0.00,VWS V14.01,2013-01-15 12:11:00,
2013-01-15 06:16:00,14.5,12.6,30.38,SSW,194,2.0,3.0,92,0.00,,---,0.00,0.00,VWS V14.01,2013-01-15 12:16:00,
2013-01-15 06:21:00,14.8,12.9,30.38,SSW,194,2.0,3.0,92,0.00,,---,0.00,0.00,VWS V14.01,2013-01-15 12:21:00,
2013-01-15 06:26:00,15.0,12.9,30.38,SSW,194,2.0,3.0,91,0.00,,---,0.00,0.00,VWS V14.01,2013-01-15 12:26:00,
2013-01-15 06:31:00,15.0,12.9,30.38,SSW,194,3.0,3.0,91,0.00,,---,0.00,0.00,VWS V14.01,2013-01-15 12:31:00,
2013-01-15 06:36:00,15.2,12.8,30.39,SSW,194,1.0,5.0,90,0.00,,---,0.00,0.00,VWS V14.01,2013-01-15 12:36:00,
2013-01-15 06:41:00,15.2,12.8,30.39,SSW,194,0.0,5.0,90,0.00,,---,0.00,0.00,VWS V14.01,2013-01-15 12:41:00,
2013-01-15 06:46:00,15.3,12.6,30.39,South,190,2.0,5.0,89,0.00,,---,0.00,0.00,VWS V14.01,2013-01-15 12:46:00,
2013-01-15 06:51:00,15.4,12.7,30.39,South,190,3.0,5.0,89,0.00,,---,0.00,0.00,VWS V14.01,2013-01-15 12:51:00,
2013-01-15 06:56:00,15.5,12.6,30.39,South,190,1.0,5.0,88,0.00,,---,0.00,0.00,VWS V14.01,2013-01-15 12:56:00,
2013-01-15 07:00:00,15.5,12.6,30.39,South,190,3.0,5.0,88,0.00,,---,0.00,0.00,VWS V14.01,2013-01-15 13:00:00,
2013-01-15 07:01:00,15.6,12.7,30.39,South,190,3.0,3.0,88,0.00,,---,0.00,0.00,VWS V14.01,2013-01-15 13:01:00,
2013-01-15 07:06:00,15.7,12.5,30.38,SW,216,1.0,4.0,87,0.00,,---,0.00,0.00,VWS V14.01,2013-01-15 13:06:00,
2013-01-15 07:11:00,15.8,12.4,30.38,SW,216,1.0,4.0,86,0.00,,---,0.00,0.00,VWS V14.01,2013-01-15 13:11:00,
2013-01-15 07:16:00,15.7,12.3,30.38,SW,216,3.0,4.0,86,0.00,,---,0.00,0.00,VWS V14.01,2013-01-15 13:16:00,
2013-01-15 07:21:00,15.7,12.0,30.38,SW,216,1.0,4.0,85,0.00,,---,0.00,0.00,VWS V14.01,2013-01-15 13:21:00,
2013-01-15 07:26:00,15.7,12.0,30.38,SW,216,0.0,4.0,85,0.00,,---,0.00,0.00,VWS V14.01,2013-01-15 13:26:00,
2013-01-15 07:31:00,15.6,11.9,30.39,SW,216,0.0,4.0,85,0.00,,---,0.00,5.00,VWS V14.01,2013-01-15 13:31:00,
2013-01-15 07:36:00,15.5,11.8,30.39,SW,216,0.0,4.0,85,0.00,,---,0.00,7.00,VWS V14.01,2013-01-15 13:36:00,
2013-01-15 07:41:00,15.4,11.7,30.39,SW,216,0.0,4.0,85,0.00,,---,0.00,9.00,VWS V14.01,2013-01-15 13:41:00,
2013-01-15 07:46:00,15.3,11.3,30.39,SW,216,0.0,4.0,84,0.00,,---,0.00,11.00,VWS V14.01,2013-01-15 13:46:00,
2013-01-15 07:51:00,15.1,11.4,30.39,SW,216,2.0,4.0,85,0.00,,---,0.00,12.00,VWS V14.01,2013-01-15 13:51:00,
2013-01-15 07:56:00,15.2,11.5,30.38,SW,216,0.0,4.0,85,0.00,,---,0.00,16.00,VWS V14.01,2013-01-15 13:56:00,
2013-01-15 08:00:00,15.3,11.9,30.38,SW,216,1.0,4.0,86,0.00,,---,0.00,18.00,VWS V14.01,2013-01-15 14:00:00,
2013-01-15 08:01:00,15.3,11.9,30.38,SW,216,1.0,1.0,86,0.00,,---,0.00,18.00,VWS V14.01,2013-01-15 14:01:00,
2013-01-15 08:06:00,15.5,11.8,30.38,SW,216,1.0,2.0,85,0.00,,---,0.00,21.00,VWS V14.01,2013-01-15 14:06:00,
2013-01-15 08:11:00,15.8,12.1,30.39,SW,216,2.0,3.0,85,0.00,,---,0.00,23.00,VWS V14.01,2013-01-15 14:11:00,
2013-01-15 08:16:00,16.1,12.4,30.38,SW,216,1.0,3.0,85,0.00,,---,0.00,25.00,VWS V14.01,2013-01-15 14:16:00,
2013-01-15 08:21:00,16.3,12.3,30.38,SW,216,1.0,3.0,84,0.00,,---,0.00,28.00,VWS V14.01,2013-01-15 14:21:00,
2013-01-15 08:26:00,16.5,12.5,30.38,SW,216,1.0,3.0,84,0.00,,---,0.00,42.00,VWS V14.01,2013-01-15 14:26:00,
2013-01-15 08:31:00,16.8,12.5,30.38,SW,216,1.0,3.0,83,0.00,,---,0.00,62.00,VWS V14.01,2013-01-15 14:31:00,
2013-01-15 08:36:00,17.1,12.8,30.38,SW,216,3.0,3.0,83,0.00,,---,0.00,63.00,VWS V14.01,2013-01-15 14:36:00,
2013-01-15 08:41:00,17.4,12.9,30.38,SSW,198,2.0,4.0,82,0.00,,---,0.00,67.00,VWS V14.01,2013-01-15 14:41:00,
2013-01-15 08:46:00,17.7,13.1,30.38,SSW,203,2.0,4.0,82,0.00,,---,0.00,49.00,VWS V14.01,2013-01-15 14:46:00,
2013-01-15 08:51:00,18.0,13.2,30.38,SSW,208,1.0,5.0,81,0.00,,---,0.00,49.00,VWS V14.01,2013-01-15 14:51:00,
2013-01-15 08:56:00,18.3,13.5,30.38,SSW,209,3.0,5.0,81,0.00,,---,0.00,97.00,VWS V14.01,2013-01-15 14:56:00,
2013-01-15 09:00:00,18.5,13.4,30.38,SSW,195,2.0,5.0,80,0.00,,---,0.00,70.00,VWS V14.01,2013-01-15 15:00:00,
2013-01-15 09:01:00,18.6,13.5,30.38,SSW,196,1.0,4.0,80,0.00,,---,0.00,90.00,VWS V14.01,2013-01-15 15:01:00,
2013-01-15 09:06:00,19.1,14.0,30.38,SSW,211,3.0,6.0,80,0.00,,---,0.00,65.00,VWS V14.01,2013-01-15 15:06:00,
2013-01-15 09:11:00,19.6,14.2,30.39,SSW,211,5.0,6.0,79,0.00,,---,0.00,70.00,VWS V14.01,2013-01-15 15:11:00,
2013-01-15 09:16:00,19.9,14.2,30.39,SSW,209,0.0,6.0,78,0.00,,---,0.00,67.00,VWS V14.01,2013-01-15 15:16:00,
2013-01-15 09:21:00,20.2,14.4,30.39,SSW,192,2.0,6.0,78,0.00,,---,0.00,90.00,VWS V14.01,2013-01-15 15:21:00,
2013-01-15 09:26:00,20.4,14.4,30.39,South,189,4.0,6.0,77,0.00,,---,0.00,67.00,VWS V14.01,2013-01-15 15:26:00,
2013-01-15 09:31:00,20.7,14.4,30.39,SSW,201,5.0,6.0,76,0.00,,---,0.00,74.00,VWS V14.01,2013-01-15 15:31:00,
2013-01-15 09:36:00,21.0,14.6,30.39,SSW,209,4.0,7.0,76,0.00,,---,0.00,98.00,VWS V14.01,2013-01-15 15:36:00,
2013-01-15 09:41:00,21.3,14.9,30.38,SSW,209,2.0,7.0,76,0.00,,---,0.00,102.00,VWS V14.01,2013-01-15 15:41:00,
2013-01-15 09:46:00,21.5,14.8,30.38,SSW,203,4.0,7.0,75,0.00,,---,0.00,102.00,VWS V14.01,2013-01-15 15:46:00,
2013-01-15 09:51:00,21.8,15.4,30.38,SSW,205,5.0,7.0,76,0.00,,---,0.00,181.00,VWS V14.01,2013-01-15 15:51:00,
2013-01-15 09:56:00,22.1,15.4,30.38,SSW,208,4.0,7.0,75,0.00,,---,0.00,239.00,VWS V14.01,2013-01-15 15:56:00,
2013-01-15 10:00:00,22.4,15.4,30.38,SSW,202,3.0,7.0,74,0.00,,---,0.00,258.00,VWS V14.01,2013-01-15 16:00:00,
2013-01-15 10:01:00,22.5,15.5,30.38,SSW,194,3.0,4.0,74,0.00,,---,0.00,274.00,VWS V14.01,2013-01-15 16:01:00,
2013-01-15 10:06:00,22.8,15.5,30.38,SSW,206,4.0,5.0,73,0.00,,---,0.00,306.00,VWS V14.01,2013-01-15 16:06:00,
2013-01-15 10:11:00,23.3,15.9,30.38,SSW,203,3.0,6.0,73,0.00,,---,0.00,323.00,VWS V14.01,2013-01-15 16:11:00,
2013-01-15 10:16:00,23.6,15.6,30.38,SW,215,5.0,8.0,71,0.00,,---,0.00,338.00,VWS V14.01,2013-01-15 16:16:00,
2013-01-15 10:21:00,24.1,16.1,30.38,SSW,209,6.0,8.0,71,0.00,,---,0.00,348.00,VWS V14.01,2013-01-15 16:21:00,
2013-01-15 10:26:00,24.5,16.5,30.37,SW,236,7.0,8.0,71,0.00,,---,0.00,362.00,VWS V14.01,2013-01-15 16:26:00,
2013-01-15 10:31:00,24.7,15.7,30.37,SSW,205,4.0,8.0,68,0.00,,---,0.00,373.00,VWS V14.01,2013-01-15 16:31:00,
2013-01-15 10:36:00,24.9,15.9,30.37,SW,215,4.0,8.0,68,0.00,,---,0.00,381.00,VWS V14.01,2013-01-15 16:36:00,
2013-01-15 10:41:00,25.1,15.7,30.36,SSW,211,3.0,9.0,67,0.00,,---,0.00,388.00,VWS V14.01,2013-01-15 16:41:00,
2013-01-15 10:46:00,25.2,15.4,30.36,SSW,212,5.0,9.0,66,0.00,,---,0.00,394.00,VWS V14.01,2013-01-15 16:46:00,
2013-01-15 10:51:00,25.7,16.3,30.36,SSW,205,5.0,9.0,67,0.00,,---,0.00,401.00,VWS V14.01,2013-01-15 16:51:00,
2013-01-15 10:56:00,25.8,16.0,30.36,SSW,209,6.0,9.0,66,0.00,,---,0.00,406.00,VWS V14.01,2013-01-15 16:56:00,
2013-01-15 11:00:00,26.0,16.2,30.36,SSW,202,6.0,9.0,66,0.00,,---,0.00,410.00,VWS V14.01,2013-01-15 17:00:00,
2013-01-15 11:01:00,26.0,15.9,30.36,SSW,210,7.0,7.0,65,0.00,,---,0.00,413.00,VWS V14.01,2013-01-15 17:01:00,
2013-01-15 11:06:00,26.3,15.8,30.35,SSW,202,7.0,9.0,64,0.00,,---,0.00,418.00,VWS V14.01,2013-01-15 17:06:00,
2013-01-15 11:11:00,26.5,16.7,30.35,SSW,207,4.0,9.0,66,0.00,,---,0.00,425.00,VWS V14.01,2013-01-15 17:11:00,
2013-01-15 11:16:00,26.7,15.8,30.35,SSW,212,4.0,9.0,63,0.00,,---,0.00,429.00,VWS V14.01,2013-01-15 17:16:00,
2013-01-15 11:21:00,26.8,15.5,30.34,SSW,204,7.0,9.0,62,0.00,,---,0.00,434.00,VWS V14.01,2013-01-15 17:21:00,
2013-01-15 11:26:00,27.2,16.3,30.34,SW,218,3.0,11.0,63,0.00,,---,0.00,436.00,VWS V14.01,2013-01-15 17:26:00,
2013-01-15 11:31:00,27.5,15.8,30.33,SSW,210,5.0,11.0,61,0.00,,---,0.00,439.00,VWS V14.01,2013-01-15 17:31:00,
2013-01-15 11:36:00,27.7,16.4,30.33,SSW,212,5.0,11.0,62,0.00,,---,0.00,443.00,VWS V14.01,2013-01-15 17:36:00,
2013-01-15 11:41:00,28.0,16.7,30.33,SW,221,9.0,11.0,62,0.00,,---,0.00,446.00,VWS V14.01,2013-01-15 17:41:00,
2013-01-15 11:46:00,27.7,15.6,30.33,SSW,198,5.0,11.0,60,0.00,,---,0.00,446.00,VWS V14.01,2013-01-15 17:46:00,
2013-01-15 11:51:00,28.0,16.7,30.33,SSW,209,4.0,11.0,62,0.00,,---,0.00,448.00,VWS V14.01,2013-01-15 17:51:00,
2013-01-15 11:57:00,28.2,16.5,30.32,SW,217,5.0,11.0,61,0.00,,---,0.00,450.00,VWS V14.01,2013-01-15 17:57:00,
2013-01-15 12:00:00,28.3,16.2,30.32,SSW,212,4.0,11.0,60,0.00,,---,0.00,452.00,VWS V14.01,2013-01-15 18:00:00,
2013-01-15 12:02:00,28.3,16.2,30.32,SSW,196,6.0,6.0,60,0.00,,---,0.00,450.00,VWS V14.01,2013-01-15 18:02:00,
2013-01-15 12:07:00,28.5,16.4,30.32,SSW,204,7.0,12.0,60,0.00,,---,0.00,454.00,VWS V14.01,2013-01-15 18:07:00,
2013-01-15 12:12:00,28.6,16.1,30.32,SSW,205,10.0,12.0,59,0.00,,---,0.00,448.00,VWS V14.01,2013-01-15 18:12:00,
2013-01-15 12:17:00,28.5,16.0,30.32,SSW,211,9.0,12.0,59,0.00,,---,0.00,455.00,VWS V14.01,2013-01-15 18:17:00,
2013-01-15 12:22:00,28.6,16.1,30.31,SW,220,6.0,12.0,59,0.00,,---,0.00,374.00,VWS V14.01,2013-01-15 18:22:00,
2013-01-15 12:27:00,28.7,16.6,30.31,SSW,212,7.0,12.0,60,0.00,,---,0.00,383.00,VWS V14.01,2013-01-15 18:27:00,
2013-01-15 12:32:00,28.6,16.1,30.31,SSW,201,6.0,12.0,59,0.00,,---,0.00,371.00,VWS V14.01,2013-01-15 18:32:00,
2013-01-15 12:37:00,28.8,16.3,30.31,SW,222,8.0,12.0,59,0.00,,---,0.00,381.00,VWS V14.01,2013-01-15 18:37:00,
2013-01-15 12:42:00,29.0,16.5,30.31,WSW,243,8.0,12.0,59,0.00,,---,0.00,288.00,VWS V14.01,2013-01-15 18:42:00,
2013-01-15 12:47:00,29.2,17.4,30.31,SSW,206,4.0,12.0,61,0.00,,---,0.00,156.00,VWS V14.01,2013-01-15 18:47:00,
2013-01-15 12:52:00,29.3,16.8,30.30,SW,221,11.0,12.0,59,0.00,,---,0.00,214.00,VWS V14.01,2013-01-15 18:52:00,
2013-01-15 12:56:00,28.9,16.0,30.29,SSW,209,5.0,13.0,58,0.00,,---,0.00,176.00,VWS V14.01,2013-01-15 18:56:00,
2013-01-15 13:00:00,29.1,17.3,30.29,SSW,208,5.0,13.0,61,0.00,,---,0.00,149.00,VWS V14.01,2013-01-15 19:00:00,
2013-01-15 13:01:00,29.2,16.7,30.29,SSW,202,5.0,8.0,59,0.00,,---,0.00,221.00,VWS V14.01,2013-01-15 19:01:00,
2013-01-15 13:06:00,29.3,16.4,30.29,SSW,202,7.0,13.0,58,0.00,,---,0.00,225.00,VWS V14.01,2013-01-15 19:06:00,
2013-01-15 13:11:00,29.4,16.9,30.29,SW,236,8.0,13.0,59,0.00,,---,0.00,171.00,VWS V14.01,2013-01-15 19:11:00,
2013-01-15 13:16:00,29.5,16.6,30.29,SSW,203,7.0,13.0,58,0.00,,---,0.00,153.00,VWS V14.01,2013-01-15 19:16:00,
2013-01-15 13:21:00,29.3,16.0,30.28,SW,215,8.0,13.0,57,0.00,,---,0.00,211.00,VWS V14.01,2013-01-15 19:21:00,
2013-01-15 13:26:00,29.3,16.0,30.28,SSW,213,6.0,13.0,57,0.00,,---,0.00,142.00,VWS V14.01,2013-01-15 19:26:00,
2013-01-15 13:31:00,29.6,16.2,30.28,SSW,211,6.0,13.0,57,0.00,,---,0.00,274.00,VWS V14.01,2013-01-15 19:31:00,
2013-01-15 13:36:00,29.8,16.8,30.28,SSW,203,7.0,13.0,58,0.00,,---,0.00,308.00,VWS V14.01,2013-01-15 19:36:00,
2013-01-15 13:41:00,29.8,16.4,30.27,SW,217,6.0,13.0,57,0.00,,---,0.00,302.00,VWS V14.01,2013-01-15 19:41:00,
2013-01-15 13:46:00,29.8,16.4,30.27,SW,222,5.0,13.0,57,0.00,,---,0.00,320.00,VWS V14.01,2013-01-15 19:46:00,
2013-01-15 13:51:00,29.9,16.5,30.27,SSW,204,6.0,13.0,57,0.00,,---,0.00,353.00,VWS V14.01,2013-01-15 19:51:00,
2013-01-15 13:56:00,30.0,16.2,30.27,SW,214,5.0,13.0,56,0.00,,---,0.00,346.00,VWS V14.01,2013-01-15 19:56:00,
2013-01-15 14:00:00,30.1,16.3,30.27,SSW,208,5.0,13.0,56,0.00,,---,0.00,339.00,VWS V14.01,2013-01-15 20:00:00,
2013-01-15 14:01:00,30.1,16.3,30.27,SSW,209,8.0,8.0,56,0.00,,---,0.00,251.00,VWS V14.01,2013-01-15 20:01:00,
2013-01-15 14:06:00,30.1,16.3,30.26,SW,219,6.0,10.0,56,0.00,,---,0.00,327.00,VWS V14.01,2013-01-15 20:06:00,
2013-01-15 14:11:00,30.3,16.5,30.26,SSW,211,7.0,10.0,56,0.00,,---,0.00,339.00,VWS V14.01,2013-01-15 20:11:00,
2013-01-15 14:16:00,30.3,16.5,30.26,SSW,206,5.0,10.0,56,0.00,,---,0.00,204.00,VWS V14.01,2013-01-15 20:16:00,
2013-01-15 14:21:00,30.5,16.7,30.26,SSW,209,7.0,10.0,56,0.00,,---,0.00,244.00,VWS V14.01,2013-01-15 20:21:00,
2013-01-15 14:26:00,30.6,16.4,30.26,SSW,202,7.0,10.0,55,0.00,,---,0.00,236.00,VWS V14.01,2013-01-15 20:26:00,
2013-01-15 14:31:00,30.6,16.8,30.26,SSW,204,7.0,10.0,56,0.00,,---,0.00,251.00,VWS V14.01,2013-01-15 20:31:00,
2013-01-15 14:36:00,30.4,16.2,30.26,SSW,200,3.0,10.0,55,0.00,,---,0.00,211.00,VWS V14.01,2013-01-15 20:36:00,
2013-01-15 14:41:00,30.6,16.4,30.25,SSW,208,7.0,10.0,55,0.00,,---,0.00,190.00,VWS V14.01,2013-01-15 20:41:00,
2013-01-15 14:46:00,30.4,16.2,30.25,SSW,205,6.0,10.0,55,0.00,,---,0.00,98.00,VWS V14.01,2013-01-15 20:46:00,
2013-01-15 14:51:00,30.3,16.5,30.25,SSW,203,7.0,10.0,56,0.00,,---,0.00,51.00,VWS V14.01,2013-01-15 20:51:00,
2013-01-15 14:56:00,30.2,16.0,30.25,SSW,205,4.0,10.0,55,0.00,,---,0.00,72.00,VWS V14.01,2013-01-15 20:56:00,
2013-01-15 15:00:00,30.2,16.8,30.25,SW,215,7.0,10.0,57,0.00,,---,0.00,105.00,VWS V14.01,2013-01-15 21:00:00,
2013-01-15 15:01:00,30.1,16.3,30.25,SSW,202,7.0,8.0,56,0.00,,---,0.00,132.00,VWS V14.01,2013-01-15 21:01:00,
2013-01-15 15:06:00,30.2,16.8,30.25,SSW,197,4.0,8.0,57,0.00,,---,0.00,58.00,VWS V14.01,2013-01-15 21:06:00,
2013-01-15 15:11:00,30.3,16.5,30.25,SSW,211,6.0,8.0,56,0.00,,---,0.00,46.00,VWS V14.01,2013-01-15 21:11:00,
2013-01-15 15:16:00,30.2,16.8,30.25,SSW,211,5.0,8.0,57,0.00,,---,0.00,51.00,VWS V14.01,2013-01-15 21:16:00,
2013-01-15 15:21:00,30.1,16.3,30.25,SW,216,7.0,8.0,56,0.00,,---,0.00,56.00,VWS V14.01,2013-01-15 21:21:00,
2013-01-15 15:26:00,30.0,15.8,30.25,SW,221,8.0,9.0,55,0.00,,---,0.00,58.00,VWS V14.01,2013-01-15 21:26:00,
2013-01-15 15:31:00,30.0,16.2,30.25,SW,214,6.0,9.0,56,0.00,,---,0.00,137.00,VWS V14.01,2013-01-15 21:31:00,
2013-01-15 15:36:00,30.1,16.3,30.25,SSW,209,7.0,9.0,56,0.00,,---,0.00,120.00,VWS V14.01,2013-01-15 21:36:00,
2013-01-15 15:41:00,30.1,17.1,30.24,SSW,202,5.0,9.0,58,0.00,,---,0.00,98.00,VWS V14.01,2013-01-15 21:41:00,
2013-01-15 15:46:00,30.0,16.2,30.24,SSW,207,6.0,9.0,56,0.00,,---,0.00,67.00,VWS V14.01,2013-01-15 21:46:00,
2013-01-15 15:51:00,29.7,16.4,30.24,SSW,213,7.0,9.0,57,0.00,,---,0.00,33.00,VWS V14.01,2013-01-15 21:51:00,
2013-01-15 15:56:00,29.5,16.2,30.24,SSW,211,5.0,9.0,57,0.00,,---,0.00,35.00,VWS V14.01,2013-01-15 21:56:00,
2013-01-15 16:00:00,29.4,16.5,30.24,SW,214,6.0,9.0,58,0.00,,---,0.00,33.00,VWS V14.01,2013-01-15 22:00:00,
2013-01-15 16:01:00,29.4,16.1,30.24,SSW,202,3.0,6.0,57,0.00,,---,0.00,32.00,VWS V14.01,2013-01-15 22:01:00,
2013-01-15 16:06:00,29.2,16.3,30.24,SSW,207,4.0,6.0,58,0.00,,---,0.00,32.00,VWS V14.01,2013-01-15 22:06:00,
2013-01-15 16:11:00,29.1,16.2,30.24,SW,216,5.0,6.0,58,0.00,,---,0.00,25.00,VWS V14.01,2013-01-15 22:11:00,
2013-01-15 16:16:00,29.0,16.5,30.24,SSW,207,3.0,6.0,59,0.00,,---,0.00,23.00,VWS V14.01,2013-01-15 22:16:00,
2013-01-15 16:21:00,28.8,16.7,30.24,SSW,207,3.0,6.0,60,0.00,,---,0.00,21.00,VWS V14.01,2013-01-15 22:21:00,
2013-01-15 16:26:00,28.7,16.2,30.24,SSW,200,3.0,6.0,59,0.00,,---,0.00,18.00,VWS V14.01,2013-01-15 22:26:00,
2013-01-15 16:31:00,28.6,16.1,30.24,SSW,213,5.0,7.0,59,0.00,,---,0.00,16.00,VWS V14.01,2013-01-15 22:31:00,
2013-01-15 16:36:00,28.5,16.4,30.24,SSW,213,3.0,7.0,60,0.00,,---,0.00,12.00,VWS V14.01,2013-01-15 22:36:00,
2013-01-15 16:41:00,28.3,16.2,30.24,SSW,205,4.0,7.0,60,0.00,,---,0.00,9.00,VWS V14.01,2013-01-15 22:41:00,
2013-01-15 16:46:00,28.0,15.9,30.23,SSW,211,5.0,7.0,60,0.00,,---,0.00,5.00,VWS V14.01,2013-01-15 22:46:00,
2013-01-15 16:51:00,27.8,16.1,30.23,SSW,208,1.0,7.0,61,0.00,,---,0.00,0.00,VWS V14.01,2013-01-15 22:51:00,
2013-01-15 16:56:00,27.6,15.9,30.23,SSW,209,5.0,7.0,61,0.00,,---,0.00,0.00,VWS V14.01,2013-01-15 22:56:00,
2013-01-15 17:00:00,27.5,15.8,30.23,SSW,209,3.0,7.0,61,0.00,,---,0.00,0.00,VWS V14.01,2013-01-15 23:00:00,
2013-01-15 17:01:00,27.4,15.7,30.23,SSW,209,4.0,4.0,61,0.00,,---,0.00,0.00,VWS V14.01,2013-01-15 23:01:00,
2013-01-15 17:06:00,27.3,15.6,30.23,SSW,209,3.0,5.0,61,0.00,,---,0.00,0.00,VWS V14.01,2013-01-15 23:06:00,
2013-01-15 17:11:00,27.1,15.8,30.23,SSW,209,3.0,5.0,62,0.00,,---,0.00,0.00,VWS V14.01,2013-01-15 23:11:00,
2013-01-15 17:16:00,26.9,15.6,30.23,SSW,208,3.0,5.0,62,0.00,,---,0.00,0.00,VWS V14.01,2013-01-15 23:16:00,
2013-01-15 17:21:00,26.9,15.6,30.23,SSW,208,2.0,5.0,62,0.00,,---,0.00,0.00,VWS V14.01,2013-01-15 23:21:00,
2013-01-15 17:26:00,26.7,15.4,30.23,SSW,207,2.0,5.0,62,0.00,,---,0.00,0.00,VWS V14.01,2013-01-15 23:26:00,
2013-01-15 17:31:00,26.6,15.4,30.23,SSW,207,2.0,5.0,62,0.00,,---,0.00,0.00,VWS V14.01,2013-01-15 23:31:00,
2013-01-15 17:36:00,26.4,15.2,30.23,SSW,207,2.0,5.0,62,0.00,,---,0.00,0.00,VWS V14.01,2013-01-15 23:36:00,
2013-01-15 17:41:00,26.4,15.2,30.22,SSW,207,4.0,5.0,62,0.00,,---,0.00,0.00,VWS V14.01,2013-01-15 23:41:00,
2013-01-15 17:46:00,26.3,15.1,30.22,SSW,207,4.0,5.0,62,0.00,,---,0.00,0.00,VWS V14.01,2013-01-15 23:46:00,
2013-01-15 17:51:00,26.2,15.3,30.23,SSW,207,2.0,5.0,63,0.00,,---,0.00,0.00,VWS V14.01,2013-01-15 23:51:00,
2013-01-15 17:56:00,26.0,15.1,30.22,SSW,207,1.0,5.0,63,0.00,,---,0.00,0.00,VWS V14.01,2013-01-15 23:56:00,
2013-01-15 18:00:00,25.8,15.0,30.22,SSW,207,2.0,5.0,63,0.00,,---,0.00,0.00,VWS V14.01,2013-01-16 00:00:00,
2013-01-15 18:01:00,25.7,15.2,30.22,SSW,207,3.0,3.0,64,0.00,,---,0.00,0.00,VWS V14.01,2013-01-16 00:01:00,
2013-01-15 18:06:00,25.6,15.1,30.22,SSW,207,3.0,4.0,64,0.00,,---,0.00,0.00,VWS V14.01,2013-01-16 00:06:00,
2013-01-15 18:11:00,25.5,15.4,30.21,SSW,207,2.0,4.0,65,0.00,,---,0.00,0.00,VWS V14.01,2013-01-16 00:11:00,
2013-01-15 18:16:00,25.5,15.4,30.21,SSW,207,2.0,4.0,65,0.00,,---,0.00,0.00,VWS V14.01,2013-01-16 00:16:00,
2013-01-15 18:21:00,25.4,15.3,30.21,SSW,207,2.0,4.0,65,0.00,,---,0.00,0.00,VWS V14.01,2013-01-16 00:21:00,
2013-01-15 18:26:00,25.4,15.3,30.20,SSW,207,1.0,4.0,65,0.00,,---,0.00,0.00,VWS V14.01,2013-01-16 00:26:00,
2013-01-15 18:31:00,25.3,15.2,30.20,SSW,207,2.0,4.0,65,0.00,,---,0.00,0.00,VWS V14.01,2013-01-16 00:31:00,
2013-01-15 18:36:00,25.2,15.1,30.20,SSW,207,2.0,4.0,65,0.00,,---,0.00,0.00,VWS V14.01,2013-01-16 00:36:00,
2013-01-15 18:41:00,25.2,15.1,30.20,South,174,1.0,4.0,65,0.00,,---,0.00,0.00,VWS V14.01,2013-01-16 00:41:00,
2013-01-15 18:46:00,25.1,15.0,30.20,SSW,207,2.0,4.0,65,0.00,,---,0.00,0.00,VWS V14.01,2013-01-16 00:46:00,
2013-01-15 18:51:00,25.1,15.0,30.20,SSW,207,3.0,5.0,65,0.00,,---,0.00,0.00,VWS V14.01,2013-01-16 00:51:00,
2013-01-15 18:56:00,25.1,15.4,30.20,SSW,207,3.0,5.0,66,0.00,,---,0.00,0.00,VWS V14.01,2013-01-16 00:56:00,
2013-01-15 19:00:00,25.0,14.9,30.20,SSW,207,3.0,5.0,65,0.00,,---,0.00,0.00,VWS V14.01,2013-01-16 01:00:00,
2013-01-15 19:01:00,25.0,15.3,30.20,SSW,207,3.0,4.0,66,0.00,,---,0.00,0.00,VWS V14.01,2013-01-16 01:01:00,
2013-01-15 19:06:00,24.8,15.1,30.19,SSW,207,2.0,4.0,66,0.00,,---,0.00,0.00,VWS V14.01,2013-01-16 01:06:00,
2013-01-15 19:11:00,24.7,15.0,30.19,SSW,207,3.0,4.0,66,0.00,,---,0.00,0.00,VWS V14.01,2013-01-16 01:11:00,
2013-01-15 19:16:00,24.5,15.1,30.19,SSW,207,4.0,4.0,67,0.00,,---,0.00,0.00,VWS V14.01,2013-01-16 01:16:00,
2013-01-15 19:21:00,24.5,15.1,30.19,SSW,207,3.0,4.0,67,0.00,,---,0.00,0.00,VWS V14.01,2013-01-16 01:21:00,
2013-01-15 19:26:00,24.4,15.4,30.18,SSW,207,4.0,4.0,68,0.00,,---,0.00,0.00,VWS V14.01,2013-01-16 01:26:00,
2013-01-15 19:31:00,24.3,15.3,30.18,SSW,207,2.0,4.0,68,0.00,,---,0.00,0.00,VWS V14.01,2013-01-16 01:31:00,
2013-01-15 19:36:00,24.3,15.6,30.17,SSW,207,3.0,6.0,69,0.00,,---,0.00,0.00,VWS V14.01,2013-01-16 01:36:00,
2013-01-15 19:41:00,24.3,15.6,30.17,SSW,200,4.0,6.0,69,0.00,,---,0.00,0.00,VWS V14.01,2013-01-16 01:41:00,
2013-01-15 19:46:00,24.3,15.6,30.17,SSW,198,3.0,6.0,69,0.00,,---,0.00,0.00,VWS V14.01,2013-01-16 01:46:00,
2013-01-15 19:51:00,24.2,15.5,30.17,SSW,212,4.0,7.0,69,0.00,,---,0.00,0.00,VWS V14.01,2013-01-16 01:51:00,
2013-01-15 19:56:00,24.2,15.5,30.17,SSW,211,4.0,7.0,69,0.00,,---,0.00,0.00,VWS V14.01,2013-01-16 01:56:00,
2013-01-15 20:00:00,24.2,15.5,30.17,SSW,211,3.0,7.0,69,0.00,,---,0.00,0.00,VWS V14.01,2013-01-16 02:00:00,
2013-01-15 20:01:00,24.2,15.8,30.17,SSW,211,4.0,4.0,70,0.00,,---,0.00,0.00,VWS V14.01,2013-01-16 02:01:00,
2013-01-15 20:06:00,24.2,15.8,30.16,SSW,207,3.0,7.0,70,0.00,,---,0.00,0.00,VWS V14.01,2013-01-16 02:06:00,
2013-01-15 20:11:00,24.0,15.6,30.16,SSW,207,4.0,7.0,70,0.00,,---,0.00,0.00,VWS V14.01,2013-01-16 02:11:00,
2013-01-15 20:17:00,23.9,17.5,30.16,SSW,211,5.0,7.0,76,0.00,,---,0.00,0.00,VWS V14.01,2013-01-16 02:17:00,
2013-01-15 20:22:00,23.9,15.6,30.15,SSW,211,2.0,7.0,70,0.00,,---,0.00,0.00,VWS V14.01,2013-01-16 02:22:00,
2013-01-15 20:27:00,23.7,15.7,30.15,SSW,204,3.0,7.0,71,0.00,,---,0.00,0.00,VWS V14.01,2013-01-16 02:27:00,
2013-01-15 20:32:00,23.5,15.5,30.15,SSW,204,3.0,7.0,71,0.00,,---,0.00,0.00,VWS V14.01,2013-01-16 02:32:00,
2013-01-15 20:37:00,23.4,15.7,30.14,SSW,210,3.0,7.0,72,0.00,,---,0.00,0.00,VWS V14.01,2013-01-16 02:37:00,
2013-01-15 20:42:00,23.3,15.6,30.14,SSW,210,3.0,7.0,72,0.00,,---,0.00,0.00,VWS V14.01,2013-01-16 02:42:00,
2013-01-15 20:47:00,23.3,15.6,30.14,SSW,210,4.0,7.0,72,0.00,,---,0.00,0.00,VWS V14.01,2013-01-16 02:47:00,
2013-01-15 20:52:00,23.1,15.4,30.14,SSW,210,4.0,7.0,72,0.00,,---,0.00,0.00,VWS V14.01,2013-01-16 02:52:00,
2013-01-15 20:57:00,23.1,15.4,30.14,SSW,210,3.0,7.0,72,0.00,,---,0.00,0.00,VWS V14.01,2013-01-16 02:57:00,
2013-01-15 21:00:00,23.0,15.6,30.13,SSW,210,4.0,7.0,73,0.00,,---,0.00,0.00,VWS V14.01,2013-01-16 03:00:00,
2013-01-15 21:02:00,22.9,15.2,30.13,SSW,206,5.0,6.0,72,0.00,,---,0.00,0.00,VWS V14.01,2013-01-16 03:02:00,
2013-01-15 21:07:00,22.9,15.2,30.13,SSW,202,4.0,6.0,72,0.00,,---,0.00,0.00,VWS V14.01,2013-01-16 03:07:00,
2013-01-15 21:12:00,22.9,15.6,30.13,SSW,207,4.0,6.0,73,0.00,,---,0.00,0.00,VWS V14.01,2013-01-16 03:12:00,
2013-01-15 21:17:00,22.9,15.6,30.13,SSW,212,2.0,6.0,73,0.00,,---,0.00,0.00,VWS V14.01,2013-01-16 03:17:00,
2013-01-15 21:22:00,22.7,15.4,30.12,SSW,212,4.0,6.0,73,0.00,,---,0.00,0.00,VWS V14.01,2013-01-16 03:22:00,
2013-01-15 21:27:00,22.7,15.4,30.12,SSW,205,5.0,6.0,73,0.00,,---,0.00,0.00,VWS V14.01,2013-01-16 03:27:00,
2013-01-15 21:32:00,22.6,15.3,30.12,SSW,206,4.0,6.0,73,0.00,,---,0.00,0.00,VWS V14.01,2013-01-16 03:32:00,
2013-01-15 21:37:00,22.5,15.2,30.12,SSW,207,4.0,6.0,73,0.00,,---,0.00,0.00,VWS V14.01,2013-01-16 03:37:00,
2013-01-15 21:42:00,22.5,15.2,30.12,SSW,207,4.0,6.0,73,0.00,,---,0.00,0.00,VWS V14.01,2013-01-16 03:42:00,
2013-01-15 21:47:00,22.5,15.2,30.12,SSW,211,3.0,6.0,73,0.00,,---,0.00,0.00,VWS V14.01,2013-01-16 03:47:00,
2013-01-15 21:52:00,22.4,15.1,30.12,SSW,210,3.0,6.0,73,0.00,,---,0.00,0.00,VWS V14.01,2013-01-16 03:52:00,
2013-01-15 21:57:00,22.3,15.0,30.11,SW,219,3.0,6.0,73,0.00,,---,0.00,0.00,VWS V14.01,2013-01-16 03:57:00,
2013-01-15 22:00:00,22.2,14.9,30.12,SSW,203,6.0,6.0,73,0.00,,---,0.00,0.00,VWS V14.01,2013-01-16 04:00:00,
2013-01-15 22:02:00,22.2,14.9,30.11,SW,231,3.0,6.0,73,0.00,,---,0.00,0.00,VWS V14.01,2013-01-16 04:02:00,
2013-01-15 22:07:00,22.3,15.0,30.11,SSW,205,5.0,6.0,73,0.00,,---,0.00,0.00,VWS V14.01,2013-01-16 04:07:00,
2013-01-15 22:11:00,22.4,15.1,30.11,SSW,213,3.0,6.0,73,0.00,,---,0.00,0.00,VWS V14.01,2013-01-16 04:11:00,
2013-01-15 22:16:00,22.3,15.0,30.11,SSW,209,4.0,6.0,73,0.00,,---,0.00,0.00,VWS V14.01,2013-01-16 04:16:00,
2013-01-15 22:21:00,22.2,14.9,30.10,SW,218,5.0,7.0,73,0.00,,---,0.00,0.00,VWS V14.01,2013-01-16 04:21:00,
2013-01-15 22:26:00,22.3,15.0,30.10,SSW,211,4.0,7.0,73,0.00,,---,0.00,0.00,VWS V14.01,2013-01-16 04:26:00,
2013-01-15 22:31:00,22.2,14.6,30.09,SW,216,4.0,7.0,72,0.00,,---,0.00,0.00,VWS V14.01,2013-01-16 04:31:00,
2013-01-15 22:36:00,22.1,14.8,30.09,SSW,206,3.0,7.0,73,0.00,,---,0.00,0.00,VWS V14.01,2013-01-16 04:36:00,
2013-01-15 22:41:00,22.0,14.7,30.09,SSW,207,3.0,7.0,73,0.00,,---,0.00,0.00,VWS V14.01,2013-01-16 04:41:00,
2013-01-15 22:46:00,21.9,14.6,30.09,SSW,208,3.0,7.0,73,0.00,,---,0.00,0.00,VWS V14.01,2013-01-16 04:46:00,
2013-01-15 22:51:00,21.9,14.6,30.08,SSW,211,3.0,7.0,73,0.00,,---,0.00,0.00,VWS V14.01,2013-01-16 04:51:00,
2013-01-15 22:56:00,21.8,14.5,30.08,SSW,210,5.0,7.0,73,0.00,,---,0.00,0.00,VWS V14.01,2013-01-16 04:56:00,
2013-01-15 23:00:00,21.7,14.4,30.08,SSW,210,5.0,5.0,73,0.00,,---,0.00,0.00,VWS V14.01,2013-01-16 05:00:00,
2013-01-15 23:01:00,21.7,14.4,30.08,SSW,210,4.0,5.0,73,0.00,,---,0.00,0.00,VWS V14.01,2013-01-16 05:01:00,
2013-01-15 23:06:00,21.7,14.4,30.08,SSW,210,4.0,6.0,73,0.00,,---,0.00,0.00,VWS V14.01,2013-01-16 05:06:00,
2013-01-15 23:11:00,21.7,14.4,30.08,SSW,211,5.0,6.0,73,0.00,,---,0.00,0.00,VWS V14.01,2013-01-16 05:11:00,
2013-01-15 23:16:00,21.7,14.4,30.08,SSW,207,4.0,7.0,73,0.00,,---,0.00,0.00,VWS V14.01,2013-01-16 05:16:00,
2013-01-15 23:21:00,21.6,14.3,30.07,SSW,209,5.0,7.0,73,0.00,,---,0.00,0.00,VWS V14.01,2013-01-16 05:21:00,
2013-01-15 23:26:00,21.5,14.2,30.07,SSW,207,3.0,7.0,73,0.00,,---,0.00,0.00,VWS V14.01,2013-01-16 05:26:00,
2013-01-15 23:31:00,21.4,14.1,30.06,SSW,207,4.0,7.0,73,0.00,,---,0.00,0.00,VWS V14.01,2013-01-16 05:31:00,
2013-01-15 23:36:00,21.3,14.0,30.06,SSW,206,1.0,7.0,73,0.00,,---,0.00,0.00,VWS V14.01,2013-01-16 05:36:00,
2013-01-15 23:41:00,21.1,14.1,30.06,SSW,206,1.0,7.0,74,0.00,,---,0.00,0.00,VWS V14.01,2013-01-16 05:41:00,
2013-01-15 23:47:00,20.9,13.9,30.05,SSW,206,2.0,7.0,74,0.00,,---,0.00,0.00,VWS V14.01,2013-01-16 05:47:00,
2013-01-15 23:51:00,20.8,13.8,30.05,SSW,206,3.0,7.0,74,0.00,,---,0.00,0.00,VWS V14.01,2013-01-16 05:51:00,
2013-01-15 23:56:00,20.9,13.9,30.05,SW,221,4.0,7.0,74,0.00,,---,0.00,0.00,VWS V14.01,2013-01-16 05:56:00,